Time;durP1;ratioP1;P1;durP2;ratioP2;P2;SDS_P1;SDS_P2;PMS_P1;PMS_P2;Temp;Humidity;BMP_temperature;BMP_pressure;BME280_temperature;BME280_humidity;BME280_pressure;Samples;Min_cycle;Max_cycle;Signal;HPM_P1;HPM_P2
2023/03/04 00:01:37;;;;;;;22.48;8.80;;;2.30;99.90;;;;;;5080905;28;20030;-67
2023/03/04 00:04:02;;;;;;;22.88;8.50;;;2.30;99.90;;;;;;5081044;28;20020;-67
2023/03/04 00:06:28;;;;;;;20.40;7.68;;;2.30;99.90;;;;;;5081186;28;20126;-67
2023/03/04 00:08:53;;;;;;;24.00;9.00;;;2.30;99.90;;;;;;5080727;28;20024;-67
2023/03/04 00:11:19;;;;;;;24.90;8.63;;;2.20;99.90;;;;;;5081402;28;20031;-67
2023/03/04 00:13:45;;;;;;;21.13;7.30;;;2.10;99.90;;;;;;5080675;28;20020;-67
2023/03/04 00:16:10;;;;;;;22.13;8.18;;;2.10;99.90;;;;;;5080580;28;20050;-67
2023/03/04 00:18:36;;;;;;;27.38;9.55;;;2.10;99.90;;;;;;5098257;28;20028;-67
2023/03/04 00:21:01;;;;;;;20.90;8.02;;;2.10;99.90;;;;;;5080709;28;20028;-67
2023/03/04 00:23:27;;;;;;;22.80;8.23;;;2.10;99.90;;;;;;5080335;28;20028;-68
2023/03/04 00:26:00;;;;;;;19.42;7.80;;;2.10;99.90;;;;;;5098489;28;20081;-68
2023/03/04 00:28:26;;;;;;;21.95;8.27;;;2.20;99.90;;;;;;5080753;28;20023;-68
2023/03/04 00:30:52;;;;;;;20.52;8.20;;;2.30;99.90;;;;;;5098047;28;20020;-68
2023/03/04 00:33:17;;;;;;;20.13;7.35;;;2.40;99.90;;;;;;5080460;28;20032;-68
2023/03/04 00:35:43;;;;;;;18.90;7.63;;;2.50;99.90;;;;;;5080206;28;20028;-68
2023/03/04 00:38:08;;;;;;;21.70;7.63;;;2.70;99.90;;;;;;5080220;28;20056;-68
2023/03/04 00:40:34;;;;;;;21.25;7.13;;;2.90;99.90;;;;;;5080132;28;20106;-68
2023/03/04 00:43:00;;;;;;;15.48;6.38;;;3.00;99.90;;;;;;5080637;28;20084;-68
2023/03/04 00:45:25;;;;;;;19.75;7.25;;;3.20;99.90;;;;;;5080822;28;20031;-68
2023/03/04 00:47:51;;;;;;;23.08;7.93;;;3.10;99.90;;;;;;5080478;28;20102;-68
2023/03/04 00:50:16;;;;;;;15.57;6.63;;;3.10;99.90;;;;;;5079928;28;20034;-68
2023/03/04 00:52:42;;;;;;;15.45;6.90;;;3.00;99.90;;;;;;5080675;28;20031;-68
2023/03/04 00:55:08;;;;;;;21.25;7.50;;;2.90;99.90;;;;;;5080223;28;20114;-68
2023/03/04 00:57:33;;;;;;;22.50;7.65;;;2.90;99.90;;;;;;5080037;28;20053;-68
2023/03/04 00:59:59;;;;;;;23.02;7.45;;;3.00;99.90;;;;;;5080339;28;20167;-68
2023/03/04 01:02:25;;;;;;;22.75;7.10;;;3.00;99.90;;;;;;5079958;28;20162;-68
2023/03/04 01:04:50;;;;;;;20.35;6.57;;;3.10;99.90;;;;;;5079991;28;20020;-68
2023/03/04 01:07:16;;;;;;;20.95;7.00;;;2.90;99.90;;;;;;5080761;28;20070;-68
2023/03/04 01:09:41;;;;;;;23.00;9.07;;;2.90;99.90;;;;;;5079561;28;20031;-68
2023/03/04 01:12:07;;;;;;;21.60;7.43;;;2.80;99.90;;;;;;5080024;28;20105;-68
2023/03/04 01:14:33;;;;;;;20.73;9.07;;;2.60;99.90;;;;;;5079985;28;20120;-68
2023/03/04 01:16:58;;;;;;;22.65;7.95;;;2.50;99.90;;;;;;5079587;28;20035;-68
2023/03/04 01:19:24;;;;;;;15.57;7.20;;;2.50;99.90;;;;;;5080107;28;20119;-68
2023/03/04 01:21:49;;;;;;;18.50;7.32;;;2.60;99.90;;;;;;5079667;28;20024;-68
2023/03/04 01:24:15;;;;;;;18.20;7.38;;;2.60;99.90;;;;;;5080645;28;20022;-68
2023/03/04 01:26:40;;;;;;;17.35;7.65;;;2.70;99.90;;;;;;5079576;28;20020;-68
2023/03/04 01:29:06;;;;;;;16.33;6.65;;;2.70;99.90;;;;;;5079620;28;20119;-68
2023/03/04 01:31:32;;;;;;;17.48;7.35;;;2.60;99.90;;;;;;5079957;28;20020;-68
2023/03/04 01:33:57;;;;;;;19.08;7.07;;;2.60;99.90;;;;;;5080152;28;20026;-68
2023/03/04 01:36:23;;;;;;;20.73;7.20;;;2.50;99.90;;;;;;5080534;28;20024;-68
2023/03/04 01:38:49;;;;;;;17.55;7.43;;;2.50;99.90;;;;;;5079742;28;20074;-68
2023/03/04 01:41:17;;;;;;;17.17;6.88;;;2.70;99.90;;;;;;5079581;28;20024;-68
2023/03/04 01:43:44;;;;;;;17.27;7.25;;;2.80;99.90;;;;;;5079807;28;20032;-68
2023/03/04 01:46:13;;;;;;;15.35;6.47;;;2.90;99.90;;;;;;5080107;28;20020;-68
2023/03/04 01:48:40;;;;;;;21.77;8.63;;;2.70;99.90;;;;;;5079357;28;20031;-68
2023/03/04 01:51:12;;;;;;;16.58;7.25;;;2.50;99.90;;;;;;5079627;28;20024;-68
2023/03/04 01:53:37;;;;;;;17.98;7.90;;;2.50;99.90;;;;;;5079953;28;20024;-68
2023/03/04 01:56:13;;;;;;;21.17;7.13;;;2.40;99.90;;;;;;5079232;28;20028;-68
2023/03/04 01:58:39;;;;;;;18.33;7.63;;;2.30;99.90;;;;;;5079252;28;20052;-68
2023/03/04 02:01:04;;;;;;;20.98;7.55;;;2.30;99.90;;;;;;5079456;28;20096;-68
2023/03/04 02:03:30;;;;;;;18.52;7.18;;;2.20;99.90;;;;;;5079089;28;20024;-68
2023/03/04 02:05:56;;;;;;;19.45;6.90;;;2.10;99.90;;;;;;5079172;28;20020;-68
2023/03/04 02:08:23;;;;;;;21.13;7.25;;;2.20;99.90;;;;;;5081193;28;20094;-68
2023/03/04 02:10:50;;;;;;;18.13;7.43;;;2.30;99.90;;;;;;5082988;28;20028;-68
2023/03/04 02:13:16;;;;;;;24.10;8.02;;;2.00;99.90;;;;;;5083413;28;20091;-68
2023/03/04 02:15:44;;;;;;;19.02;6.20;;;1.90;99.90;;;;;;5083352;28;20043;-66
2023/03/04 02:18:21;;;;;;;19.25;7.13;;;2.10;99.90;;;;;;5083017;28;20024;-66
2023/03/04 02:21:17;;;;;;;22.00;7.95;;;2.10;99.90;;;;;;5082875;28;20028;-66
2023/03/04 02:23:55;;;;;;;20.92;7.38;;;2.30;99.90;;;;;;5082703;28;20024;-66
2023/03/04 02:26:26;;;;;;;18.98;8.10;;;2.20;99.90;;;;;;5082702;28;20024;-66
2023/03/04 02:28:54;;;;;;;19.83;7.37;;;2.30;99.90;;;;;;5100899;28;20020;-66
2023/03/04 02:31:28;;;;;;;20.83;7.53;;;2.40;99.90;;;;;;5082642;28;20031;-66
2023/03/04 02:33:57;;;;;;;22.23;7.88;;;2.30;99.90;;;;;;5100448;28;20028;-66
2023/03/04 02:36:23;;;;;;;23.00;8.18;;;2.40;99.90;;;;;;5082541;28;20115;-66
2023/03/04 02:38:50;;;;;;;17.35;7.30;;;2.10;99.90;;;;;;5082507;28;20129;-66
2023/03/04 02:41:19;;;;;;;17.52;7.10;;;2.10;99.90;;;;;;5082784;28;20091;-66
2023/03/04 02:43:46;;;;;;;16.33;7.18;;;2.20;99.90;;;;;;5082474;28;20043;-66
2023/03/04 02:46:12;;;;;;;23.55;8.55;;;2.20;99.90;;;;;;5083224;28;20129;-66
2023/03/04 02:48:38;;;;;;;25.58;8.43;;;2.30;99.90;;;;;;5082597;28;20043;-66
2023/03/04 02:51:04;;;;;;;19.10;7.57;;;2.30;99.90;;;;;;5082255;28;20049;-67
2023/03/04 02:53:29;;;;;;;19.67;7.47;;;2.20;99.90;;;;;;5100329;28;20102;-67
2023/03/04 02:55:55;;;;;;;22.15;8.20;;;2.30;99.90;;;;;;5082164;28;20028;-68
2023/03/04 02:58:20;;;;;;;20.58;6.82;;;2.50;99.90;;;;;;5082930;28;20116;-70
2023/03/04 03:00:46;;;;;;;17.00;7.57;;;2.50;99.90;;;;;;5099798;28;20016;-70
2023/03/04 03:03:11;;;;;;;18.60;7.18;;;2.30;99.90;;;;;;5082044;28;20035;-70
2023/03/04 03:05:37;;;;;;;25.88;8.77;;;2.30;99.90;;;;;;5083070;28;20016;-70
2023/03/04 03:08:03;;;;;;;19.40;7.75;;;2.00;99.90;;;;;;5100037;28;20016;-70
2023/03/04 03:10:29;;;;;;;21.90;7.88;;;2.00;99.90;;;;;;5081689;28;20035;-70
2023/03/04 03:12:55;;;;;;;21.27;7.18;;;1.80;99.90;;;;;;5082178;28;20016;-70
2023/03/04 03:15:21;;;;;;;20.20;7.50;;;2.10;99.90;;;;;;5081830;28;20016;-70
2023/03/04 03:17:46;;;;;;;19.50;7.75;;;2.10;99.90;;;;;;5081804;28;20107;-70
2023/03/04 03:20:13;;;;;;;19.05;7.60;;;2.20;99.90;;;;;;5080652;28;20105;-64
2023/03/04 03:22:39;;;;;;;21.55;7.60;;;2.30;99.90;;;;;;5082097;28;20030;-64
2023/03/04 03:25:06;;;;;;;22.05;8.18;;;2.30;99.90;;;;;;5099477;28;20020;-64
2023/03/04 03:27:32;;;;;;;22.23;8.50;;;2.20;99.90;;;;;;5081514;28;20016;-64
2023/03/04 03:29:57;;;;;;;21.50;7.97;;;2.10;99.90;;;;;;5081966;28;20108;-64
2023/03/04 03:32:23;;;;;;;20.88;8.10;;;2.30;99.90;;;;;;5081467;28;20047;-64
2023/03/04 03:34:49;;;;;;;23.95;8.60;;;2.20;99.90;;;;;;5082248;28;20065;-64
2023/03/04 03:37:14;;;;;;;15.90;7.25;;;2.10;99.90;;;;;;5081717;28;20085;-64
2023/03/04 03:39:40;;;;;;;22.08;8.32;;;2.20;99.90;;;;;;5082180;28;20034;-64
2023/03/04 03:42:06;;;;;;;20.48;7.50;;;2.30;99.90;;;;;;5081388;28;20035;-64
2023/03/04 03:44:31;;;;;;;23.13;8.45;;;2.40;99.90;;;;;;5081432;28;20024;-65
2023/03/04 03:46:57;;;;;;;18.27;7.50;;;2.30;99.90;;;;;;5081620;28;20031;-66
2023/03/04 03:49:22;;;;;;;22.67;7.65;;;2.30;99.90;;;;;;5081953;28;20035;-66
2023/03/04 03:51:48;;;;;;;21.75;8.20;;;2.40;99.90;;;;;;5081142;28;20050;-66
2023/03/04 03:54:13;;;;;;;17.58;6.50;;;2.50;99.90;;;;;;5081084;28;20146;-70
2023/03/04 03:56:39;;;;;;;23.15;8.73;;;2.60;99.90;;;;;;5081042;28;20107;-70
2023/03/04 03:59:05;;;;;;;21.38;7.28;;;2.60;99.90;;;;;;5080960;28;20067;-70
2023/03/04 04:01:32;;;;;;;24.55;8.00;;;2.60;99.90;;;;;;5099147;28;20055;-70
2023/03/04 04:03:58;;;;;;;22.20;7.90;;;2.60;99.90;;;;;;5080865;28;20069;-66
2023/03/04 04:06:24;;;;;;;24.13;7.82;;;2.50;99.90;;;;;;5081195;28;20072;-66
2023/03/04 04:08:50;;;;;;;20.77;7.53;;;2.40;99.90;;;;;;5081521;28;20024;-66
2023/03/04 04:11:16;;;;;;;21.77;6.88;;;2.40;99.90;;;;;;5081059;28;20027;-66
2023/03/04 04:13:41;;;;;;;21.33;8.70;;;2.50;99.90;;;;;;5080805;28;20027;-66
2023/03/04 04:16:08;;;;;;;20.95;7.18;;;2.40;99.90;;;;;;5080764;28;20024;-67
2023/03/04 04:18:33;;;;;;;20.75;7.88;;;2.50;99.90;;;;;;5080961;28;20115;-67
2023/03/04 04:20:59;;;;;;;25.75;8.73;;;2.50;99.90;;;;;;5080398;28;20119;-67
2023/03/04 04:23:24;;;;;;;21.20;8.27;;;2.50;99.90;;;;;;5080518;28;20027;-67
2023/03/04 04:25:50;;;;;;;20.67;7.90;;;2.50;99.90;;;;;;5080442;28;20043;-67
2023/03/04 04:28:15;;;;;;;21.48;8.25;;;2.70;99.90;;;;;;5080458;28;20020;-67
2023/03/04 04:30:41;;;;;;;19.77;7.80;;;2.80;99.90;;;;;;5098096;28;20032;-66
2023/03/04 04:33:09;;;;;;;19.00;7.10;;;2.70;99.90;;;;;;5080166;28;20020;-66
2023/03/04 04:35:37;;;;;;;22.45;7.88;;;2.70;99.90;;;;;;5080315;28;20027;-66
2023/03/04 04:38:03;;;;;;;22.88;8.27;;;2.60;99.90;;;;;;5081238;28;20027;-66
2023/03/04 04:40:28;;;;;;;18.80;7.70;;;2.60;99.90;;;;;;5080936;28;20016;-66
2023/03/04 04:42:54;;;;;;;23.00;8.25;;;2.40;99.90;;;;;;5081183;28;20040;-70
2023/03/04 04:45:19;;;;;;;20.63;8.02;;;2.60;99.90;;;;;;5080844;28;20049;-70
2023/03/04 04:47:45;;;;;;;21.65;7.45;;;2.50;99.90;;;;;;5080516;28;20047;-71
2023/03/04 04:50:11;;;;;;;21.42;8.55;;;2.50;99.90;;;;;;5080346;28;20132;-71
2023/03/04 04:52:37;;;;;;;20.88;8.55;;;2.20;99.90;;;;;;5079773;28;20024;-70
2023/03/04 04:55:03;;;;;;;20.23;8.32;;;2.30;99.90;;;;;;5080804;28;20115;-70
2023/03/04 04:57:28;;;;;;;20.63;7.72;;;2.30;99.90;;;;;;5079900;28;20062;-70
2023/03/04 04:59:54;;;;;;;22.25;7.82;;;2.40;99.90;;;;;;5080163;28;20036;-70
2023/03/04 05:02:20;;;;;;;19.58;8.73;;;2.40;99.90;;;;;;5079758;28;20024;-70
2023/03/04 05:04:45;;;;;;;24.48;8.25;;;2.40;99.90;;;;;;5079642;28;20117;-73
2023/03/04 05:07:11;;;;;;;24.05;8.10;;;2.40;99.90;;;;;;5079677;28;20027;-73
2023/03/04 05:09:36;;;;;;;22.02;8.60;;;2.50;99.90;;;;;;5079988;28;20028;-73
2023/03/04 05:12:02;;;;;;;16.23;7.65;;;2.40;99.90;;;;;;5079869;28;20035;-73
2023/03/04 05:14:28;;;;;;;21.90;8.70;;;2.30;99.90;;;;;;5079841;28;20024;-73
2023/03/04 05:16:53;;;;;;;18.58;7.65;;;2.50;99.90;;;;;;5079857;28;20028;-71
2023/03/04 05:19:20;;;;;;;22.85;8.32;;;2.60;99.90;;;;;;5079482;28;20024;-68
2023/03/04 05:21:45;;;;;;;22.20;9.07;;;2.70;99.90;;;;;;5079595;28;20020;-68
2023/03/04 05:24:11;;;;;;;18.33;8.73;;;2.70;99.90;;;;;;5079572;28;20020;-68
2023/03/04 05:26:36;;;;;;;24.65;9.10;;;2.70;99.90;;;;;;5080614;28;20012;-68
2023/03/04 05:29:03;;;;;;;20.98;8.13;;;2.70;99.90;;;;;;5079865;28;20020;-68
2023/03/04 05:31:28;;;;;;;21.42;8.15;;;2.60;99.90;;;;;;5079384;28;20028;-68
2023/03/04 05:33:54;;;;;;;27.50;8.40;;;2.70;99.90;;;;;;5079817;28;20031;-68
2023/03/04 05:36:20;;;;;;;19.92;7.85;;;2.70;99.90;;;;;;5079695;28;20024;-68
2023/03/04 05:38:45;;;;;;;20.42;9.52;;;2.80;99.90;;;;;;5079540;28;20027;-68
2023/03/04 05:41:11;;;;;;;20.45;8.95;;;2.80;99.90;;;;;;5079325;28;20024;-64
2023/03/04 05:43:41;;;;;;;22.42;8.27;;;2.80;99.90;;;;;;5100488;22;20033;-67
2023/03/04 05:46:07;;;;;;;21.90;8.38;;;2.60;99.90;;;;;;5080499;28;20103;-67
2023/03/04 05:48:33;;;;;;;27.50;8.48;;;2.50;99.90;;;;;;5080173;28;20142;-68
2023/03/04 05:51:00;;;;;;;18.63;6.97;;;2.70;99.90;;;;;;5080074;28;20028;-68
2023/03/04 05:53:27;;;;;;;21.10;9.18;;;2.90;99.90;;;;;;5080600;28;20025;-68
2023/03/04 05:55:52;;;;;;;21.17;7.90;;;3.00;99.90;;;;;;5080445;28;20059;-68
2023/03/04 05:58:18;;;;;;;22.00;8.05;;;3.00;99.90;;;;;;5079980;28;20028;-68
2023/03/04 06:00:44;;;;;;;16.85;7.75;;;2.90;99.90;;;;;;5080667;28;20108;-68
2023/03/04 06:03:15;;;;;;;23.02;7.72;;;2.90;99.90;;;;;;5080171;28;20111;-68
2023/03/04 06:05:41;;;;;;;26.30;8.75;;;3.10;99.90;;;;;;5079956;28;20059;-68
2023/03/04 06:08:06;;;;;;;18.45;8.10;;;3.00;99.90;;;;;;5079951;28;20025;-68
2023/03/04 06:10:32;;;;;;;18.55;8.18;;;3.00;99.90;;;;;;5080713;28;20100;-68
2023/03/04 06:12:57;;;;;;;26.50;8.57;;;2.90;99.90;;;;;;5079561;28;20021;-68
2023/03/04 06:15:23;;;;;;;22.83;8.80;;;2.90;99.90;;;;;;5079529;28;20017;-68
2023/03/04 06:17:48;;;;;;;22.00;8.60;;;2.80;99.90;;;;;;5079650;28;20032;-68
2023/03/04 06:20:14;;;;;;;20.33;7.70;;;2.90;99.90;;;;;;5079456;28;20025;-68
2023/03/04 06:22:40;;;;;;;19.20;9.82;;;2.90;99.90;;;;;;5079422;28;20064;-68
2023/03/04 06:25:06;;;;;;;23.10;8.00;;;2.90;99.90;;;;;;5079328;28;20027;-67
2023/03/04 06:27:31;;;;;;;20.52;8.35;;;3.10;99.90;;;;;;5079625;28;20031;-67
2023/03/04 06:29:57;;;;;;;22.98;8.43;;;2.90;99.90;;;;;;5080244;28;20100;-67
2023/03/04 06:32:23;;;;;;;22.92;9.55;;;3.00;99.90;;;;;;5080222;28;20035;-67
2023/03/04 06:34:48;;;;;;;29.45;10.05;;;3.00;99.90;;;;;;5079160;28;20043;-68
2023/03/04 06:37:14;;;;;;;28.58;9.10;;;3.10;99.90;;;;;;5079663;28;20086;-68
2023/03/04 06:39:39;;;;;;;26.02;8.95;;;3.10;99.90;;;;;;5079698;28;20063;-68
2023/03/04 06:42:05;;;;;;;25.58;9.07;;;3.10;99.90;;;;;;5079286;28;20124;-68
2023/03/04 06:44:30;;;;;;;21.27;9.50;;;3.20;99.90;;;;;;5079602;28;20031;-68
2023/03/04 06:46:56;;;;;;;21.23;9.10;;;3.20;99.90;;;;;;5079947;28;20020;-68
2023/03/04 06:49:22;;;;;;;26.98;8.82;;;3.00;99.90;;;;;;5079208;28;20021;-68
2023/03/04 06:51:47;;;;;;;20.40;8.50;;;3.00;99.90;;;;;;5079822;28;20031;-68
2023/03/04 06:54:13;;;;;;;25.50;8.90;;;3.00;99.90;;;;;;5079615;28;20103;-68
2023/03/04 06:56:39;;;;;;;22.00;8.43;;;2.90;99.90;;;;;;5079141;28;20035;-65
2023/03/04 06:59:04;;;;;;;25.45;10.10;;;3.10;99.90;;;;;;5079014;28;20021;-65
2023/03/04 07:01:30;;;;;;;24.42;9.55;;;3.20;99.90;;;;;;5078998;28;20024;-65
2023/03/04 07:03:56;;;;;;;23.05;8.93;;;3.40;99.90;;;;;;5078634;28;20032;-65
2023/03/04 07:06:24;;;;;;;24.42;9.00;;;3.50;99.90;;;;;;5079413;28;20017;-65
2023/03/04 07:08:50;;;;;;;22.88;9.13;;;3.60;99.90;;;;;;5078691;28;20016;-66
2023/03/04 07:11:17;;;;;;;25.15;8.43;;;3.70;99.90;;;;;;5079232;28;20025;-68
2023/03/04 07:13:43;;;;;;;21.40;8.70;;;3.50;99.90;;;;;;5079337;28;20074;-68
2023/03/04 07:16:12;;;;;;;21.88;8.57;;;3.20;99.90;;;;;;5079442;28;20052;-68
2023/03/04 07:18:37;;;;;;;24.80;9.15;;;3.20;99.90;;;;;;5080028;28;20024;-67
2023/03/04 07:21:04;;;;;;;30.40;9.43;;;3.30;99.90;;;;;;5084605;28;20040;-67
2023/03/04 07:23:30;;;;;;;28.08;8.68;;;3.40;99.90;;;;;;5079066;28;20021;-67
2023/03/04 07:25:56;;;;;;;31.95;9.27;;;3.50;99.90;;;;;;5078648;28;20024;-67
2023/03/04 07:28:21;;;;;;;21.05;8.50;;;3.60;99.90;;;;;;5078559;28;20021;-67
2023/03/04 07:30:47;;;;;;;26.35;8.32;;;3.60;99.90;;;;;;5078758;28;20016;-67
2023/03/04 07:33:13;;;;;;;22.35;8.95;;;3.40;99.90;;;;;;5079711;28;20027;-65
2023/03/04 07:35:39;;;;;;;21.20;9.48;;;3.30;99.90;;;;;;5078956;28;20020;-65
2023/03/04 07:38:05;;;;;;;23.05;8.50;;;3.30;99.90;;;;;;5079510;28;20025;-65
2023/03/04 07:40:31;;;;;;;26.42;10.35;;;3.40;99.90;;;;;;5079512;28;20024;-68
2023/03/04 07:42:56;;;;;;;23.25;9.43;;;3.40;99.90;;;;;;5079031;28;20056;-68
2023/03/04 07:45:23;;;;;;;21.27;8.88;;;3.50;99.90;;;;;;5079146;28;20021;-68
2023/03/04 07:47:49;;;;;;;24.67;9.30;;;3.40;99.90;;;;;;5077932;28;20021;-68
2023/03/04 07:50:16;;;;;;;30.17;10.77;;;3.20;99.90;;;;;;5077747;28;20021;-68
2023/03/04 07:52:44;;;;;;;24.10;9.00;;;3.20;99.90;;;;;;5077862;28;20028;-68
2023/03/04 07:55:12;;;;;;;24.98;9.15;;;3.30;99.90;;;;;;5077387;28;20029;-68
2023/03/04 07:57:39;;;;;;;22.13;8.80;;;3.50;99.90;;;;;;5078058;28;20025;-68
2023/03/04 08:00:05;;;;;;;27.27;9.10;;;3.60;99.90;;;;;;5078595;28;20028;-68
2023/03/04 08:02:31;;;;;;;24.13;9.25;;;3.80;99.90;;;;;;5077700;28;20070;-68
2023/03/04 08:04:56;;;;;;;26.02;9.27;;;3.80;99.90;;;;;;5077309;28;20029;-68
2023/03/04 08:07:22;;;;;;;19.98;8.85;;;3.70;99.90;;;;;;5076999;28;20086;-68
2023/03/04 08:09:48;;;;;;;26.73;9.57;;;3.80;99.90;;;;;;5077268;28;20048;-68
2023/03/04 08:12:14;;;;;;;18.88;8.38;;;3.90;99.90;;;;;;5077484;28;20021;-68
2023/03/04 08:14:40;;;;;;;24.30;9.43;;;3.90;99.90;;;;;;5078343;28;20027;-68
2023/03/04 08:17:05;;;;;;;30.23;9.88;;;4.10;99.90;;;;;;5077366;28;20020;-68
2023/03/04 08:19:31;;;;;;;24.55;9.80;;;4.00;99.90;;;;;;5077227;28;20039;-68
2023/03/04 08:21:56;;;;;;;31.48;10.15;;;4.00;99.90;;;;;;5077771;28;20035;-68
2023/03/04 08:24:22;;;;;;;27.27;10.45;;;4.10;99.90;;;;;;5077165;28;20012;-68
2023/03/04 08:26:49;;;;;;;28.80;12.07;;;4.20;99.90;;;;;;5077663;28;20109;-68
2023/03/04 08:29:21;;;;;;;31.58;11.38;;;4.10;99.90;;;;;;5077863;28;20025;-68
2023/03/04 08:31:50;;;;;;;24.50;10.05;;;4.00;99.90;;;;;;5077899;28;20032;-68
2023/03/04 08:34:16;;;;;;;30.35;10.90;;;4.10;99.90;;;;;;5077751;28;20128;-68
2023/03/04 08:36:42;;;;;;;26.30;9.73;;;4.00;99.90;;;;;;5077229;28;20071;-68
2023/03/04 08:39:10;;;;;;;35.50;10.93;;;4.10;99.90;;;;;;5077944;28;20024;-68
2023/03/04 08:41:36;;;;;;;28.48;11.10;;;4.10;99.90;;;;;;5076645;28;20027;-68
2023/03/04 08:44:02;;;;;;;27.45;11.02;;;4.20;99.90;;;;;;5076950;28;20037;-68
2023/03/04 08:46:28;;;;;;;27.15;10.07;;;4.40;99.90;;;;;;5077592;28;20027;-68
2023/03/04 08:48:53;;;;;;;25.10;9.32;;;4.40;99.90;;;;;;5076668;28;20021;-68
2023/03/04 08:51:19;;;;;;;29.30;9.70;;;4.50;99.90;;;;;;5077829;28;20033;-68
2023/03/04 08:53:45;;;;;;;26.60;9.35;;;4.50;99.90;;;;;;5076569;28;20032;-67
2023/03/04 08:56:12;;;;;;;27.60;9.70;;;4.50;99.90;;;;;;5076910;28;20020;-67
2023/03/04 08:58:38;;;;;;;27.08;9.77;;;4.50;99.90;;;;;;5076498;28;20082;-67
2023/03/04 09:01:06;;;;;;;24.50;9.57;;;4.70;99.90;;;;;;5077647;28;20113;-68
2023/03/04 09:03:32;;;;;;;26.23;9.25;;;4.90;99.90;;;;;;5076599;28;20020;-67
2023/03/04 09:05:57;;;;;;;22.75;8.70;;;5.00;99.90;;;;;;5077382;28;20029;-67
2023/03/04 09:08:23;;;;;;;19.27;8.02;;;5.10;99.90;;;;;;5077273;28;20021;-68
2023/03/04 09:10:52;;;;;;;29.33;8.75;;;5.20;99.90;;;;;;5077378;28;20196;-68
2023/03/04 09:13:18;;;;;;;31.25;8.10;;;5.30;99.90;;;;;;5076886;28;20132;-68
2023/03/04 09:15:45;;;;;;;24.70;7.93;;;5.40;99.90;;;;;;5078123;28;20056;-68
2023/03/04 09:18:11;;;;;;;27.30;8.82;;;5.50;99.90;;;;;;5076314;28;20025;-67
2023/03/04 09:20:36;;;;;;;27.42;8.60;;;5.60;99.90;;;;;;5077698;28;20028;-67
2023/03/04 09:23:02;;;;;;;25.98;7.32;;;5.80;99.90;;;;;;5077030;28;20024;-67
2023/03/04 09:25:28;;;;;;;23.13;7.80;;;5.90;99.90;;;;;;5076634;28;20028;-67
2023/03/04 09:27:53;;;;;;;20.15;7.13;;;5.90;99.90;;;;;;5077537;28;20021;-67
2023/03/04 09:30:19;;;;;;;19.13;7.25;;;6.00;99.90;;;;;;5077341;28;20109;-67
2023/03/04 09:32:44;;;;;;;20.98;7.28;;;6.20;99.90;;;;;;5076112;28;20020;-67
2023/03/04 09:35:10;;;;;;;17.33;7.78;;;6.30;99.90;;;;;;5076208;28;20024;-68
2023/03/04 09:37:36;;;;;;;13.82;6.35;;;6.20;99.90;;;;;;5076074;28;20092;-68
2023/03/04 09:40:03;;;;;;;24.23;6.90;;;6.00;99.90;;;;;;5077325;28;20031;-68
2023/03/04 09:42:45;;;;;;;19.23;5.20;;;5.90;99.90;;;;;;5076291;28;20031;-68
2023/03/04 09:45:14;;;;;;;;;;;5.80;99.90;;;;;;5075582;28;20039;-67
2023/03/04 09:47:40;;;;;;;12.20;3.75;;;6.00;99.90;;;;;;5075498;28;19956;-68
2023/03/04 09:50:08;;;;;;;14.00;3.35;;;6.10;99.90;;;;;;5075359;28;20012;-68
2023/03/04 09:52:57;;;;;;;12.13;3.28;;;6.10;99.90;;;;;;5075076;28;20031;-68
2023/03/04 09:55:24;;;;;;;12.57;3.45;;;6.20;99.90;;;;;;5075935;28;20025;-67
2023/03/04 09:58:06;;;;;;;11.65;2.58;;;6.20;99.90;;;;;;5075923;28;20112;-68
2023/03/04 10:00:41;;;;;;;9.70;3.17;;;6.30;99.90;;;;;;5075914;28;20021;-68
2023/03/04 10:03:19;;;;;;;6.10;2.45;;;6.30;99.90;;;;;;5075367;28;20039;-68
2023/03/04 10:05:57;;;;;;;8.38;2.95;;;6.50;99.90;;;;;;5075009;28;20025;-68
2023/03/04 10:08:54;;;;;;;8.15;1.92;;;6.70;99.90;;;;;;5075697;28;20073;-68
2023/03/04 10:11:23;;;;;;;6.75;1.90;;;6.70;99.90;;;;;;5071760;28;20043;-68
2023/03/04 10:14:19;;;;;;;7.05;2.10;;;6.60;99.90;;;;;;5075571;28;20025;-68
2023/03/04 10:17:04;;;;;;;4.20;2.22;;;6.80;99.90;;;;;;5075961;28;20035;-68
2023/03/04 10:19:44;;;;;;;13.52;2.55;;;6.70;99.90;;;;;;5074767;28;20020;-68
2023/03/04 10:22:24;;;;;;;9.32;1.92;;;6.80;99.90;;;;;;5075505;28;20032;-68
2023/03/04 10:24:52;;;;;;;4.45;1.95;;;6.90;99.90;;;;;;5075671;28;20033;-68
2023/03/04 10:27:18;;;;;;;16.52;3.22;;;7.00;99.90;;;;;;5074885;28;20025;-68
2023/03/04 10:29:44;;;;;;;4.85;1.63;;;7.00;99.90;;;;;;5076883;28;20115;-68
2023/03/04 10:32:17;;;;;;;4.57;1.75;;;7.00;99.90;;;;;;5079142;28;20059;-68
2023/03/04 10:34:43;;;;;;;4.68;1.73;;;7.10;99.90;;;;;;5080726;28;20027;-67
2023/03/04 10:37:10;;;;;;;9.15;1.63;;;7.40;99.90;;;;;;5080994;28;20031;-68
2023/03/04 10:39:37;;;;;;;9.63;1.70;;;7.40;99.90;;;;;;5078052;28;20048;-68
2023/03/04 10:42:26;;;;;;;3.58;1.40;;;7.30;99.90;;;;;;5077723;28;20020;-68
2023/03/04 10:44:55;;;;;;;9.40;2.03;;;7.40;99.90;;;;;;5041908;28;1063331;-68
2023/03/04 10:47:27;;;;;;;12.70;2.92;;;7.60;99.90;;;;;;5079000;28;20051;-68
2023/03/04 10:49:59;;;;;;;5.70;2.80;;;7.60;99.90;;;;;;5080058;28;20063;-68
2023/03/04 10:52:34;;;;;;;10.63;2.05;;;7.50;99.90;;;;;;5081040;28;20032;-68
2023/03/04 10:55:05;;;;;;;7.93;1.80;;;7.40;99.90;;;;;;5081257;28;20067;-68
2023/03/04 10:57:39;;;;;;;7.25;2.28;;;7.50;99.90;;;;;;5080381;28;20054;-68
2023/03/04 11:00:17;;;;;;;8.73;2.10;;;7.70;99.90;;;;;;5080866;28;20131;-67
2023/03/04 11:02:45;;;;;;;1.92;0.93;;;7.60;99.90;;;;;;5080214;28;20028;-68
2023/03/04 11:05:20;;;;;;;5.75;1.50;;;7.70;99.90;;;;;;5080773;28;20116;-68
2023/03/04 11:07:48;;;;;;;7.88;1.42;;;7.80;99.90;;;;;;5080685;28;20031;-68
2023/03/04 11:10:20;;;;;;;2.67;1.17;;;8.00;99.90;;;;;;5079379;28;20078;-68
2023/03/04 11:12:50;;;;;;;;;;;8.10;99.90;;;;;;5079021;28;20135;-68
2023/03/04 11:15:25;;;;;;;5.22;1.27;;;8.00;99.90;;;;;;5078994;28;19963;-69
2023/03/04 11:17:58;;;;;;;4.18;2.00;;;8.10;99.90;;;;;;5079852;28;20021;-69
2023/03/04 11:20:40;;;;;;;5.30;1.50;;;8.10;99.90;;;;;;5078741;28;20025;-68
2023/03/04 11:23:19;;;;;;;3.92;1.50;;;8.20;99.90;;;;;;5078360;28;20025;-68
2023/03/04 11:25:55;;;;;;;10.63;2.08;;;8.20;99.90;;;;;;5079410;28;20020;-68
2023/03/04 11:28:35;;;;;;;3.97;1.90;;;8.30;99.90;;;;;;5079425;28;20024;-67
2023/03/04 11:31:07;;;;;;;2.75;1.23;;;8.20;99.90;;;;;;5078854;28;20032;-68
2023/03/04 11:33:43;;;;;;;5.07;1.83;;;8.20;99.90;;;;;;5079406;28;20054;-68
2023/03/04 11:36:34;;;;;;;3.58;1.60;;;8.30;99.90;;;;;;5078419;28;20115;-68
2023/03/04 11:39:03;;;;;;;7.63;1.60;;;8.40;99.90;;;;;;5070171;28;20064;-68
2023/03/04 11:41:35;;;;;;;4.13;1.45;;;8.40;99.90;;;;;;5078103;28;20028;-68
2023/03/04 11:44:05;;;;;;;3.13;1.45;;;8.50;99.90;;;;;;5078919;28;20037;-68
2023/03/04 11:47:04;;;;;;;8.35;1.80;;;8.40;99.90;;;;;;5078178;28;20111;-68
2023/03/04 11:49:51;;;;;;;7.82;3.05;;;8.40;99.90;;;;;;5078183;28;20025;-68
2023/03/04 11:52:21;;;;;;;5.00;1.50;;;8.50;99.90;;;;;;5078014;28;20039;-68
2023/03/04 11:55:15;;;;;;;7.38;2.30;;;8.50;99.90;;;;;;5077985;28;20024;-68
2023/03/04 11:57:46;;;;;;;6.97;2.13;;;8.60;99.90;;;;;;5078870;28;20024;-68
2023/03/04 12:01:03;;;;;;;4.15;2.15;;;8.70;99.90;;;;;;5078011;28;20028;-68
2023/03/04 12:03:44;;;;;;;3.58;1.42;;;8.70;99.90;;;;;;5044830;28;20084;-68
2023/03/04 12:06:27;;;;;;;2.95;0.98;;;8.50;99.90;;;;;;5078868;28;20020;-68
2023/03/04 12:09:07;;;;;;;6.60;1.85;;;8.60;99.90;;;;;;5078676;28;20028;-68
2023/03/04 12:11:48;;;;;;;8.13;2.92;;;8.70;99.90;;;;;;5078412;28;20074;-68
2023/03/04 12:14:19;;;;;;;7.10;1.88;;;8.70;99.90;;;;;;5078418;28;20021;-68
2023/03/04 12:16:52;;;;;;;3.75;1.13;;;8.60;99.90;;;;;;5079082;28;20021;-68
2023/03/04 12:19:35;;;;;;;6.53;1.27;;;8.70;99.90;;;;;;5079257;28;20020;-68
2023/03/04 12:22:19;;;;;;;3.58;1.25;;;8.80;99.90;;;;;;5078679;28;20021;-68
2023/03/04 12:25:02;;;;;;;2.83;1.10;;;8.90;99.90;;;;;;5077757;28;20048;-68
2023/03/04 12:27:33;;;;;;;3.95;1.90;;;8.80;99.90;;;;;;5077484;28;20109;-68
2023/03/04 12:30:06;;;;;;;4.05;1.00;;;8.70;99.90;;;;;;5077915;28;20027;-68
2023/03/04 12:32:40;;;;;;;7.93;2.65;;;8.70;99.90;;;;;;5078075;28;20033;-68
2023/03/04 12:35:30;;;;;;;4.85;1.45;;;8.80;99.90;;;;;;5077045;28;20077;-68
2023/03/04 12:38:15;;;;;;;4.50;0.90;;;8.70;99.90;;;;;;5077537;28;20029;-68
2023/03/04 12:40:51;;;;;;;1.95;0.90;;;8.50;99.90;;;;;;5077199;28;20036;-68
2023/03/04 12:43:46;;;;;;;2.13;0.80;;;8.50;99.90;;;;;;5076900;28;20035;-69
2023/03/04 12:46:43;;;;;;;4.30;0.75;;;8.50;99.90;;;;;;5071624;28;20029;-69
2023/03/04 12:49:34;;;;;;;3.13;1.02;;;8.50;99.90;;;;;;5077598;28;20016;-69
2023/03/04 12:52:16;;;;;;;1.15;0.57;;;8.60;99.90;;;;;;5077787;28;20035;-69
2023/03/04 12:54:47;;;;;;;2.80;0.75;;;8.70;99.90;;;;;;5078213;28;20063;-69
2023/03/04 12:57:15;;;;;;;1.33;0.57;;;8.90;99.90;;;;;;5077090;28;20115;-69